South Bay, Washington
Current Conditions -  °F | °C
As of 9:54 AM on Monday 24 Nov 2014 (Local Time) from KOLM Reporting Station
Overcast Overcast  
Wind Chill: 41°   Ceiling: 1500
Heat Index: 44°   Visibility: 10mi
Dew Point: 42°   Wind: 6mph
Humidity: 93%   Direction: 230°SW
Pressure: 30.34"   Gusts: NA
Location:  46.9755°N, 122.872°W
Report Text: KOLM 241754Z 23005KT 10SM OVC015 07/06 A3034 RMK AO2 SLP274 T00670056 10067 20033 58003 $
Loading
Personal Weather Stations






























Interactive Weather Map New forecast layout! Learn more

10-Day Weather Forecast

Advertisements
Track Severe Weather on mobile